»·PEaware :: SWA362 KSEA-KBOI

SWA362 :: KSEA-KBOI

FLIGHT INFORMATION

Flight Status: Arrived
Operator:
Southwest Airlines
More flights by this operator :: More flights under this callsign
Pilot: Anonymous 17611 (17611)
Aircraft: BOEING 737-300
(B733)
More flights by this aircraft type
Origin: KSEA Seattle-Tacoma Intl
United States
Destination: KBOI Boise Air Terminal/Gowen
United States
More flights between these airports :: More routes between these airports
Route: +SUMMA1 SUMMA J54 BKE DEVLE KYAAN3
File this flight plan on PilotEdge
Remarks:
Altitude:
(Current/Filed)
32,000ft
Speed:
(Current/Filed)
480kts
Departed: 27-Dec-17 04:51 PM
Arrived: 27-Dec-17 05:44 PM
Distance/Time
Traveled:
346nm/0:52
Distance/Time
To Go:
Arrived

Flight Plot

Page will automatically refresh every two minutes.

Flight plan parsing failed; only flown route is shown


Map Options




Map Legend


Flown Route
Filed Route
Departure Airport
Arrival Airport
Navaid (VOR, NDB)
Fix

Horizontal Profiles

Position Reports

Time Latitude Longitude Heading Altitude Ground
Speed
27-Dec-17 16:27 47.447410 -122.301894 18 394ft 0kts
27-Dec-17 16:28 47.447410 -122.301894 18 394ft 0kts
27-Dec-17 16:29 47.447410 -122.301894 18 394ft 0kts
27-Dec-17 16:30 47.447410 -122.301894 18 394ft 0kts
27-Dec-17 16:31 47.447410 -122.301894 18 394ft 0kts
27-Dec-17 16:32 47.447410 -122.301894 18 394ft 0kts
27-Dec-17 16:33 47.447410 -122.301894 18 394ft 0kts
27-Dec-17 16:34 47.447410 -122.301894 18 394ft 0kts
27-Dec-17 16:35 47.447410 -122.301894 18 394ft 0kts
27-Dec-17 16:36 47.447410 -122.301894 18 394ft 0kts
27-Dec-17 16:37 47.447410 -122.301894 18 394ft 0kts
27-Dec-17 16:38 47.447410 -122.301894 18 394ft 0kts
27-Dec-17 16:39 47.447410 -122.301894 18 394ft 0kts
27-Dec-17 16:40 47.447410 -122.301894 18 394ft 0kts
27-Dec-17 16:41 47.447410 -122.301894 18 394ft 0kts
27-Dec-17 16:42 47.447410 -122.301894 18 394ft 0kts
27-Dec-17 16:43 47.447410 -122.301894 18 394ft 0kts
27-Dec-17 16:44 47.447410 -122.301894 18 394ft 0kts
27-Dec-17 16:45 47.447410 -122.301894 18 394ft 0kts
27-Dec-17 16:46 47.447410 -122.301894 18 394ft 0kts
27-Dec-17 16:47 47.447274 -122.301960 18 394ft 2kts
27-Dec-17 16:48 47.446704 -122.302050 324 392ft 2kts
27-Dec-17 16:49 47.446594 -122.301862 296 391ft 0kts
27-Dec-17 16:50 47.446594 -122.301862 296 391ft 0kts
27-Dec-17 16:51 47.446616 -122.301924 296 391ft 1kts
27-Dec-17 16:52 47.447845 -122.304472 304 399ft 15kts
27-Dec-17 16:53 47.451569 -122.306248 359 417ft 14kts
27-Dec-17 16:54 47.456887 -122.306203 2 438ft 27kts
27-Dec-17 16:55 47.463569 -122.306285 325 417ft 5kts
27-Dec-17 16:56 47.463625 -122.307660 213 407ft 10kts
27-Dec-17 16:57 47.451339 -122.307888 179 463ft 151kts
27-Dec-17 16:58 47.410601 -122.297840 149 2563ft 152kts
27-Dec-17 16:59 47.371127 -122.281019 168 4826ft 152kts
27-Dec-17 17:00 47.330777 -122.265877 170 7412ft 156kts
27-Dec-17 17:01 47.275733 -122.244490 165 8642ft 282kts
27-Dec-17 17:02 47.194865 -122.212770 169 11676ft 336kts
27-Dec-17 17:03 47.101853 -122.176199 170 14748ft 363kts
27-Dec-17 17:04 47.003979 -122.137786 172 17516ft 375kts
27-Dec-17 17:05 46.903068 -122.098377 173 20649ft 389kts
27-Dec-17 17:06 46.798921 -122.057882 174 23275ft 407kts
27-Dec-17 17:07 46.688427 -122.015579 174 25648ft 425kts
27-Dec-17 17:08 46.587562 -121.923034 120 27679ft 488kts
27-Dec-17 17:09 46.522583 -121.747048 123 29578ft 505kts
27-Dec-17 17:10 46.452705 -121.571895 123 31310ft 511kts
27-Dec-17 17:11 46.379885 -121.390394 123 31401ft 533kts
27-Dec-17 17:12 46.307010 -121.209274 124 31388ft 533kts
27-Dec-17 17:13 46.232486 -121.025623 123 31380ft 538kts
27-Dec-17 17:14 46.156818 -120.840361 123 31376ft 539kts
27-Dec-17 17:15 46.082061 -120.658546 123 31361ft 540kts
27-Dec-17 17:16 46.005865 -120.474458 123 31364ft 540kts
27-Dec-17 17:17 45.930686 -120.293883 124 31347ft 539kts
27-Dec-17 17:18 45.855570 -120.115162 124 31373ft 539kts
27-Dec-17 17:19 45.778545 -119.932727 124 31389ft 539kts
27-Dec-17 17:20 45.700259 -119.750698 125 31389ft 538kts
27-Dec-17 17:21 45.621888 -119.569229 124 31388ft 539kts
27-Dec-17 17:22 45.543957 -119.388029 124 31388ft 539kts
27-Dec-17 17:23 45.465981 -119.207648 124 31382ft 539kts
27-Dec-17 17:24 45.387582 -119.027702 125 31331ft 538kts
27-Dec-17 17:25 45.307834 -118.845875 124 31324ft 551kts
27-Dec-17 17:26 45.226303 -118.661146 124 31324ft 554kts
27-Dec-17 17:27 45.144676 -118.477418 124 31289ft 554kts
27-Dec-17 17:28 45.065063 -118.299219 125 31268ft 546kts
27-Dec-17 17:29 44.984477 -118.119975 125 30819ft 535kts
27-Dec-17 17:30 44.905409 -117.945343 124 29806ft 528kts
27-Dec-17 17:31 44.821258 -117.779270 148 29285ft 516kts
27-Dec-17 17:32 44.698217 -117.680096 153 29315ft 514kts
27-Dec-17 17:33 44.579599 -117.573785 153 28306ft 494kts
27-Dec-17 17:34 44.467036 -117.473591 153 26109ft 470kts
27-Dec-17 17:35 44.359241 -117.378055 153 23918ft 450kts
27-Dec-17 17:36 44.256726 -117.287350 153 21717ft 430kts
27-Dec-17 17:37 44.164176 -117.186591 140 19521ft 420kts
27-Dec-17 17:38 44.081881 -117.078101 141 17324ft 398kts
27-Dec-17 17:39 44.003182 -116.975348 140 15131ft 380kts
27-Dec-17 17:40 43.937528 -116.866927 125 12950ft 360kts
27-Dec-17 17:41 43.884618 -116.757333 125 10725ft 328kts
27-Dec-17 17:42 43.836311 -116.658223 124 9693ft 305kts
27-Dec-17 17:43 43.771845 -116.583501 142 7721ft 300kts
27-Dec-17 17:44 43.708107 -116.515947 141 5929ft 272kts
27-Dec-17 17:45 43.654130 -116.458813 141 5924ft 237kts
27-Dec-17 17:46 43.618014 -116.385340 111 5097ft 236kts
27-Dec-17 17:47 43.595065 -116.316019 114 3998ft 169kts
27-Dec-17 17:48 43.576043 -116.260018 114 3118ft 149kts
27-Dec-17 17:49 43.562563 -116.220566 114 2852ft 64kts
27-Dec-17 17:50 43.562585 -116.216587 355 2855ft 7kts
27-Dec-17 17:51 43.565858 -116.218160 292 2853ft 13kts

Navigation Log

Ident Type
Flight plan parsing failed, navigation log unavailable